Strona główna
METAR-TAF:

METAR-TAF

Lotnisko :

Farmingdale, Nowy Jork, Stany Zjednoczone

Szerokość geograficzna: 40-44-03N, Długość geograficzna: 073-25-01W, wysokość: 24 m

Aktualna obserwacja pogody

Raport powstał 1 godzina i 3 minut temu, godzina 02:53 UTC
Wiatr 4 kt od wschodnio-północny wschód
Temperatura 24°C
Wilgotność 65%
Ciśnienie 1015 hPa
Widzialność: 16.1 km
bezchmurnie

METAR: KFRG 150253Z AUTO 07004KT 10SM CLR 24/17 A2998 RMK AO2 SLP153 T02390167 50006

czas: 23:56 (03:56 UTC)


TAF: brakujący

Obserwacja i prognoza pogody dla ponad 4000 lotnisk (raport METAR i TAF).

Dostępne stacje oznaczono żółtymi i czerwonymi punktami na mapie.

Najedź kursorem aby zobaczyć nazwę stacji.

Kliknij aby zobaczyć obserwacje i prognozy pogody.

Aby zmienić mapę: kliknij na zielony przycisk z czarnym krzyżykiem, aby powiększyć; na zielony przycisk z myślnikiem, aby pomniejszyć; na zielone strzałki, aby przejść do map sąsiednich.


METAR-TAF: